Time;durP1;ratioP1;P1;durP2;ratioP2;P2;SDS_P1;SDS_P2;PMS_P1;PMS_P2;Temp;Humidity;BMP_temperature;BMP_pressure;BME280_temperature;BME280_humidity;BME280_pressure;Samples;Min_cycle;Max_cycle;Signal;HPM_P1;HPM_P2
2022/07/12 00:01:03;;;;;;;;;;;;;;;-144.99;100.00;52346.19;5068874;28;20020;-72
2022/07/12 00:03:30;;;;;;;;;;;;;;;-144.99;100.00;52311.53;5068768;28;19970;-72
2022/07/12 00:05:57;;;;;;;;;;;;;;;-144.99;100.00;52329.88;5077757;28;19935;-72
2022/07/12 00:08:25;;;;;;;;;;;;;;;-144.99;100.00;52287.06;5072315;28;20016;-72
2022/07/12 00:10:51;;;;;;;;;;;;;;;-144.99;100.00;52301.34;5070623;28;20374;-72
2022/07/12 00:13:18;;;;;;;;;;;;;;;-144.99;100.00;52285.03;5073803;28;20012;-72
2022/07/12 00:15:44;;;;;;;;;;;;;;;-144.99;100.00;52285.03;5073276;28;20003;-71
2022/07/12 00:18:11;;;;;;;;;;;;;;;-144.99;100.00;52309.50;5069916;28;19931;-72
2022/07/12 00:20:37;;;;;;;;;;;;;;;-144.99;100.00;52297.25;5072211;28;19925;-72
2022/07/12 00:23:04;;;;;;;;;;;;;;;-144.99;100.00;52262.63;5072017;28;19968;-72
2022/07/12 00:25:32;;;;;;;;;;;;;;;-144.99;100.00;52321.72;5072774;28;20459;-72
2022/07/12 00:27:59;;;;;;;;;;;;;;;-144.99;100.00;52336.00;5064734;28;20415;-71
2022/07/12 00:30:25;;;;;;;;;;;;;;;-144.99;100.00;52297.25;5069804;28;20337;-73
2022/07/12 00:32:51;;;;;;;;;;;;;;;-144.99;100.00;52313.56;5074304;28;19971;-73
2022/07/12 00:35:18;;;;;;;;;;;;;;;-144.99;100.00;52291.16;5068076;28;19924;-72
2022/07/12 00:37:44;;;;;;;;;;;;;;;-144.99;100.00;52305.41;5073114;28;20023;-72
2022/07/12 00:40:12;;;;;;;;;;;;;;;-144.99;100.00;52303.38;5073359;28;20474;-72
2022/07/12 00:42:39;;;;;;;;;;;;;;;-144.99;100.00;52293.19;5073559;28;20435;-72
2022/07/12 00:45:07;;;;;;;;;;;;;;;-144.99;100.00;52297.25;5072815;28;19947;-72
2022/07/12 00:47:36;;;;;;;;;;;;;;;-144.99;100.00;52309.50;5072846;28;20391;-73
2022/07/12 00:50:03;;;;;;;;;;;;;;;-144.99;100.00;52321.72;5071565;28;19924;-73
2022/07/12 00:52:30;;;;;;;;;;;;;;;-144.99;100.00;52344.16;5072613;28;19971;-72
2022/07/12 00:54:57;;;;;;;;;;;;;;;-144.99;100.00;52293.19;5072987;28;20477;-73
2022/07/12 00:57:23;;;;;;;;;;;;;;;-144.99;100.00;52333.94;5070633;28;20019;-72
2022/07/12 00:59:51;;;;;;;;;;;;;;;-144.99;100.00;52338.03;5067722;28;20002;-73
2022/07/12 01:02:18;;;;;;;;;;;;;;;-144.99;100.00;52303.38;5071059;28;19931;-72
2022/07/12 01:04:45;;;;;;;;;;;;;;;-144.99;100.00;52289.13;5064113;28;20007;-71
2022/07/12 01:07:12;;;;;;;;;;;;;;;-144.99;100.00;52313.56;5070404;28;20167;-72
2022/07/12 01:09:39;;;;;;;;;;;;;;;-144.99;100.00;52289.13;5064877;28;20592;-72
2022/07/12 01:12:06;;;;;;;;;;;;;;;-144.99;100.00;52272.81;5070557;28;19930;-72
2022/07/12 01:14:33;;;;;;;;;;;;;;;-144.99;100.00;52303.38;5071990;28;20334;-72
2022/07/12 01:17:01;;;;;;;;;;;;;;;-144.99;100.00;52317.66;5072464;28;19999;-72
2022/07/12 01:19:27;;;;;;;;;;;;;;;-144.99;100.00;52317.66;5068628;28;20380;-73
2022/07/12 01:21:54;;;;;;;;;;;;;;;-144.99;100.00;52297.25;5071484;28;20027;-72
2022/07/12 01:24:22;;;;;;;;;;;;;;;-144.99;100.00;52338.03;5068572;28;20015;-75
2022/07/12 01:26:50;;;;;;;;;;;;;;;-144.99;100.00;52305.41;5062959;28;20391;-72
2022/07/12 01:29:17;;;;;;;;;;;;;;;-144.99;100.00;52338.03;5071987;28;20307;-72
2022/07/12 01:31:43;;;;;;;;;;;;;;;-144.99;100.00;52321.72;5070035;28;20019;-75
2022/07/12 01:34:10;;;;;;;;;;;;;;;-144.99;100.00;52268.72;5070072;28;19930;-72
2022/07/12 01:36:37;;;;;;;;;;;;;;;-144.99;100.00;52336.00;5071154;28;19924;-72
2022/07/12 01:39:04;;;;;;;;;;;;;;;-144.99;100.00;52280.97;5072158;28;20423;-72
2022/07/12 01:41:32;;;;;;;;;;;;;;;-144.99;100.00;52260.56;5071061;28;19975;-71
2022/07/12 01:43:58;;;;;;;;;;;;;;;-144.99;100.00;52329.88;5070585;28;20008;-72
2022/07/12 01:46:25;;;;;;;;;;;;;;;-144.99;100.00;52329.88;5071291;28;20004;-71
2022/07/12 01:48:52;;;;;;;;;;;;;;;-144.99;100.00;52329.88;5045970;28;20400;-71
2022/07/12 01:51:18;;;;;;;;;;;;;;;-144.99;100.00;52325.81;5056427;22;19934;-74
2022/07/12 01:53:44;;;;;;;;;;;;;;;-144.99;100.00;52338.03;4964659;28;19984;-72
2022/07/12 01:56:11;;;;;;;;;;;;;;;-144.99;100.00;52313.56;5008681;28;19928;-73
2022/07/12 01:58:38;;;;;;;;;;;;;;;-144.99;100.00;52309.50;4992882;28;20011;-73
2022/07/12 02:01:05;;;;;;;;;;;;;;;-144.99;100.00;52311.53;5022685;28;19930;-73
2022/07/12 02:03:34;;;;;;;;;;;;;;;-144.99;100.00;52333.94;4965570;28;20352;-75
2022/07/12 02:06:01;;;;;;;;;;;;;;;-144.99;100.00;52327.84;4966546;28;20326;-74
2022/07/12 02:08:27;;;;;;;;;;;;;;;-144.99;100.00;52305.41;4966266;28;20085;-72
2022/07/12 02:10:54;;;;;;;;;;;;;;;-144.99;100.00;52297.25;4967921;28;19926;-71
2022/07/12 02:13:20;;;;;;;;;;;;;;;-144.99;100.00;52311.53;5038647;28;20013;-72
2022/07/12 02:15:48;;;;;;;;;;;;;;;-144.99;100.00;52309.50;5020205;28;20035;-72
2022/07/12 02:18:14;;;;;;;;;;;;;;;-144.99;100.00;52313.56;5019662;28;20287;-72
2022/07/12 02:20:41;;;;;;;;;;;;;;;-144.99;100.00;52315.59;5034415;28;20021;-73
2022/07/12 02:23:07;;;;;;;;;;;;;;;-144.99;100.00;52309.50;5011664;28;19973;-72
2022/07/12 02:25:33;;;;;;;;;;;;;;;-144.99;100.00;52333.94;4984039;28;20467;-72
2022/07/12 02:28:00;;;;;;;;;;;;;;;-144.99;100.00;52297.25;5046513;28;19924;-73
2022/07/12 02:30:26;;;;;;;;;;;;;;;-144.99;100.00;52260.56;5011020;28;20566;-72
2022/07/12 02:32:54;;;;;;;;;;;;;;;-144.99;100.00;52309.50;4967521;28;19930;-72
2022/07/12 02:35:20;;;;;;;;;;;;;;;-144.99;100.00;52333.94;5004412;28;19926;-73
2022/07/12 02:37:47;;;;;;;;;;;;;;;-144.99;100.00;52317.66;4964764;28;20041;-73
2022/07/12 02:42:57;;;;;;;;;;;;;;;-144.99;100.00;52317.66;5025732;28;20029;-73
2022/07/12 02:45:23;;;;;;;;;;;;;;;-144.99;100.00;52315.59;5015551;28;19924;-73
2022/07/12 02:47:50;;;;;;;;;;;;;;;-144.99;100.00;52309.50;5027136;28;19925;-74
2022/07/12 02:50:17;;;;;;;;;;;;;;;-144.99;100.00;52342.09;4998669;28;20009;-73
2022/07/12 02:52:44;;;;;;;;;;;;;;;-144.99;100.00;52301.34;4994428;28;19926;-73
2022/07/12 02:55:10;;;;;;;;;;;;;;;-144.99;100.00;52285.03;4973668;28;19972;-73
2022/07/12 02:57:37;;;;;;;;;;;;;;;-144.99;100.00;52305.41;5003469;28;20021;-73
2022/07/12 03:00:04;;;;;;;;;;;;;;;-144.99;100.00;52321.72;4964884;28;19972;-73
2022/07/12 03:02:31;;;;;;;;;;;;;;;-144.99;100.00;52350.25;4966801;28;19926;-74
2022/07/12 03:04:58;;;;;;;;;;;;;;;-144.99;100.00;52309.50;4968764;28;19927;-74
2022/07/12 03:07:26;;;;;;;;;;;;;;;-144.99;100.00;52301.34;5044628;28;20022;-74
2022/07/12 03:09:52;;;;;;;;;;;;;;;-144.99;100.00;52342.09;4974030;28;20317;-74
2022/07/12 03:12:19;;;;;;;;;;;;;;;-144.99;100.00;52329.88;4979601;28;19992;-74
2022/07/12 03:14:45;;;;;;;;;;;;;;;-144.99;100.00;52348.22;5036965;28;19924;-73
2022/07/12 03:17:12;;;;;;;;;;;;;;;-144.99;100.00;52309.50;4976028;28;20328;-73
2022/07/12 03:19:38;;;;;;;;;;;;;;;-144.99;100.00;52317.66;4966913;28;20026;-72
2022/07/12 03:22:05;;;;;;;;;;;;;;;-144.99;100.00;52323.75;5024140;28;20028;-73
2022/07/12 03:24:32;;;;;;;;;;;;;;;-144.99;100.00;52313.56;5013290;28;19924;-73
2022/07/12 03:26:59;;;;;;;;;;;;;;;-144.99;100.00;52289.13;5021843;28;19978;-71
2022/07/12 03:29:25;;;;;;;;;;;;;;;-144.99;100.00;52291.16;5044039;28;20015;-72
2022/07/12 03:31:52;;;;;;;;;;;;;;;-144.99;100.00;52333.94;5013527;28;19967;-71
2022/07/12 03:34:18;;;;;;;;;;;;;;;-144.99;100.00;52317.66;5021467;28;19973;-72
2022/07/12 03:36:44;;;;;;;;;;;;;;;-144.99;100.00;52309.50;5013023;28;20042;-72
2022/07/12 03:39:11;;;;;;;;;;;;;;;-144.99;100.00;52301.34;5021855;28;19926;-72
2022/07/12 03:41:39;;;;;;;;;;;;;;;-144.99;100.00;52305.41;5040044;28;20025;-71
2022/07/12 03:44:05;;;;;;;;;;;;;;;-144.99;100.00;52309.50;5019153;28;19930;-73
2022/07/12 03:46:32;;;;;;;;;;;;;;;-144.99;100.00;52323.75;5040964;28;19930;-73
2022/07/12 03:48:59;;;;;;;;;;;;;;;-144.99;100.00;52311.53;5029831;28;19926;-73
2022/07/12 03:51:25;;;;;;;;;;;;;;;-144.99;100.00;52276.88;5013628;28;19969;-72
2022/07/12 03:53:52;;;;;;;;;;;;;;;-144.99;100.00;52291.16;5011625;28;19933;-73
2022/07/12 03:58:59;;;;;;;;;;;;;;;-144.99;100.00;52264.66;4977622;28;19930;-72
2022/07/12 04:01:26;;;;;;;;;;;;;;;-144.99;100.00;52301.34;4973030;28;19934;-73
2022/07/12 04:03:52;;;;;;;;;;;;;;;-144.99;100.00;52342.09;5034065;28;19924;-72
2022/07/12 04:06:19;;;;;;;;;;;;;;;-144.99;100.00;52321.72;5023855;28;20006;-72
2022/07/12 04:08:45;;;;;;;;;;;;;;;-144.99;100.00;52268.72;5029284;28;20016;-73
2022/07/12 04:11:12;;;;;;;;;;;;;;;-144.99;100.00;52264.66;4991705;28;19976;-73
2022/07/12 04:13:38;;;;;;;;;;;;;;;-144.99;100.00;52250.38;4969310;28;19938;-72
2022/07/12 04:16:06;;;;;;;;;;;;;;;-144.99;100.00;52268.72;5014378;28;19926;-73
2022/07/12 04:18:33;;;;;;;;;;;;;;;-144.99;100.00;52285.03;5029794;28;19930;-73
2022/07/12 04:20:59;;;;;;;;;;;;;;;-144.99;100.00;52268.72;5021695;28;19940;-73
2022/07/12 04:23:25;;;;;;;;;;;;;;;-144.99;100.00;52287.06;5029212;28;19933;-74
2022/07/12 04:25:52;;;;;;;;;;;;;;;-144.99;100.00;52325.81;5021138;28;19972;-73
2022/07/12 04:28:18;;;;;;;;;;;;;;;-144.99;100.00;52262.63;5048350;28;20019;-73
2022/07/12 04:30:46;;;;;;;;;;;;;;;-144.99;100.00;52297.25;4995066;28;19926;-72
2022/07/12 04:33:14;;;;;;;;;;;;;;;-144.99;100.00;52272.81;4977155;28;20371;-73
2022/07/12 04:35:40;;;;;;;;;;;;;;;-144.99;100.00;52285.03;5020200;28;19932;-71
2022/07/12 04:38:08;;;;;;;;;;;;;;;-144.99;100.00;52289.13;5039170;28;20024;-73
2022/07/12 04:40:34;;;;;;;;;;;;;;;-144.99;100.00;52264.66;5024384;28;19931;-73
2022/07/12 04:43:01;;;;;;;;;;;;;;;-144.99;100.00;52293.19;5028187;28;20055;-74
2022/07/12 04:45:27;;;;;;;;;;;;;;;-144.99;100.00;52280.97;5012630;28;19931;-74
2022/07/12 04:47:53;;;;;;;;;;;;;;;-144.99;100.00;52264.66;5028382;28;19987;-73
2022/07/12 04:50:21;;;;;;;;;;;;;;;-144.99;100.00;52272.81;4999664;28;19930;-73
2022/07/12 04:52:48;;;;;;;;;;;;;;;-144.99;100.00;52264.66;5027950;28;19984;-73
2022/07/12 04:55:14;;;;;;;;;;;;;;;-144.99;100.00;52244.28;5002199;28;20360;-72
2022/07/12 04:57:40;;;;;;;;;;;;;;;-144.99;100.00;52232.03;5028443;28;20172;-74
2022/07/12 05:00:08;;;;;;;;;;;;;;;-144.99;100.00;52264.66;5021034;28;20381;-73
2022/07/12 05:02:34;;;;;;;;;;;;;;;-144.99;100.00;52276.88;4998449;28;19983;-76
2022/07/12 05:05:01;;;;;;;;;;;;;;;-144.99;100.00;52256.50;4981903;28;20415;-76
2022/07/12 05:07:28;;;;;;;;;;;;;;;-144.99;100.00;52258.53;5004454;28;20021;-76
2022/07/12 05:09:55;;;;;;;;;;;;;;;-144.99;100.00;52287.06;4974347;28;19926;-76
2022/07/12 05:12:21;;;;;;;;;;;;;;;-144.99;100.00;52240.19;5025202;28;19969;-78
2022/07/12 05:14:47;;;;;;;;;;;;;;;-144.99;100.00;52219.81;4987751;28;20295;-77
2022/07/12 05:17:14;;;;;;;;;;;;;;;-144.99;100.00;52227.97;5036284;28;20001;-75
2022/07/12 05:19:40;;;;;;;;;;;;;;;-144.99;100.00;52244.28;4308714;28;10000726;-76
2022/07/12 05:22:07;;;;;;;;;;;;;;;-144.99;100.00;52227.97;4976858;28;19930;-74
2022/07/12 05:24:35;;;;;;;;;;;;;;;-144.99;100.00;52252.44;4961035;28;19930;-76
2022/07/12 05:27:01;;;;;;;;;;;;;;;-144.99;100.00;52215.75;4970096;28;20336;-73
2022/07/12 05:29:28;;;;;;;;;;;;;;;-144.99;100.00;52246.31;4964298;28;20081;-73
2022/07/12 05:31:56;;;;;;;;;;;;;;;-144.99;100.00;52203.50;4956848;28;19930;-74
2022/07/12 05:34:22;;;;;;;;;;;;;;;-144.99;100.00;52246.31;4959966;28;19949;-73
2022/07/12 05:36:48;;;;;;;;;;;;;;;-144.99;100.00;52297.25;5007434;28;19934;-73
2022/07/12 05:39:15;;;;;;;;;;;;;;;-144.99;100.00;52244.28;4964176;28;19926;-74
2022/07/12 05:41:43;;;;;;;;;;;;;;;-144.99;100.00;52252.44;5006148;28;20515;-71
2022/07/12 05:44:09;;;;;;;;;;;;;;;-144.99;100.00;52244.28;5009176;28;20001;-73
2022/07/12 05:46:36;;;;;;;;;;;;;;;-144.99;100.00;52248.34;5028303;28;20113;-73
2022/07/12 05:49:03;;;;;;;;;;;;;;;-144.99;100.00;52254.47;5019097;28;19924;-73
2022/07/12 05:54:13;;;;;;;;;;;;;;;-144.99;98.65;52205.53;4964655;28;20171;-72
2022/07/12 05:56:40;;;;;;;;;;;;;;;-144.99;97.65;52219.81;5005173;28;19936;-72
2022/07/12 05:59:08;;;;;;;;;;;;;;;-144.99;97.35;52260.56;4973995;28;19940;-72
2022/07/12 06:01:34;;;;;;;;;;;;;;;-144.99;97.05;52203.50;4961411;28;19933;-72
2022/07/12 06:04:01;;;;;;;;;;;;;;;-144.99;96.23;52285.03;4962094;28;20025;-72
2022/07/12 06:06:27;;;;;;;;;;;;;;;-144.99;96.01;52270.78;5019558;28;19928;-74
2022/07/12 06:08:54;;;;;;;;;;;;;;;-144.99;95.75;52213.69;5046133;28;20583;-73
2022/07/12 06:11:20;;;;;;;;;;;;;;;-144.99;94.59;52236.13;4983454;28;19930;-73
2022/07/12 06:13:47;;;;;;;;;;;;;;;-144.99;93.34;52260.56;5011970;28;20017;-73
2022/07/12 06:16:14;;;;;;;;;;;;;;;-144.99;91.48;52268.72;4996013;28;20263;-74
2022/07/12 06:18:41;;;;;;;;;;;;;;;-144.99;91.44;52246.31;4960517;28;20017;-74
2022/07/12 06:21:07;;;;;;;;;;;;;;;-144.99;92.05;52260.56;5028529;28;20401;-73
2022/07/12 06:23:34;;;;;;;;;;;;;;;-144.99;92.00;52215.75;4966862;28;20381;-73
2022/07/12 06:26:01;;;;;;;;;;;;;;;-144.99;91.79;52252.44;4982998;28;19952;-73
2022/07/12 06:28:27;;;;;;;;;;;;;;;-144.99;91.66;52252.44;4965006;28;20448;-74
2022/07/12 06:30:53;;;;;;;;;;;;;;;-144.99;90.56;52260.56;4956210;28;20019;-74
2022/07/12 06:33:21;;;;;;;;;;;;;;;-144.99;89.25;52240.19;4981379;28;20009;-71
2022/07/12 06:35:48;;;;;;;;;;;;;;;-144.99;88.53;52223.88;4986798;28;19933;-73
2022/07/12 06:38:14;;;;;;;;;;;;;;;-144.99;88.43;52256.50;4985693;28;20029;-73
2022/07/12 06:40:40;;;;;;;;;;;;;;;-144.99;87.83;52223.88;4965680;28;20036;-71
2022/07/12 06:43:09;;;;;;;;;;;;;;;-144.99;87.49;52242.22;4983938;28;19960;-73
2022/07/12 06:45:35;;;;;;;;;;;;;;;-144.99;87.51;52225.94;4974099;28;20058;-74
2022/07/12 06:48:02;;;;;;;;;;;;;;;-144.99;86.42;52252.44;4956437;28;20385;-71
2022/07/12 06:50:30;;;;;;;;;;;;;;;-144.99;85.97;52264.66;4970455;28;19941;-73
2022/07/12 06:52:56;;;;;;;;;;;;;;;-144.99;85.12;52240.19;4980208;28;20006;-73
2022/07/12 06:55:23;;;;;;;;;;;;;;;-144.99;84.09;52187.19;4999723;28;20073;-72
2022/07/12 06:57:49;;;;;;;;;;;;;;;-144.99;83.55;52215.75;4635885;28;10000355;-73
2022/07/12 07:00:15;;;;;;;;;;;;;;;-144.99;83.27;52213.69;4982795;28;19941;-72
2022/07/12 07:02:42;;;;;;;;;;;;;;;-144.99;83.15;52248.34;4955438;28;20025;-70
2022/07/12 07:05:10;;;;;;;;;;;;;;;-144.99;82.52;52221.84;4982093;28;20025;-72
2022/07/12 07:07:38;;;;;;;;;;;;;;;-144.99;82.88;52209.63;4995077;28;19936;-71
2022/07/12 07:10:05;;;;;;;;;;;;;;;-144.99;81.63;52203.50;4963052;28;20501;-72
2022/07/12 07:12:31;;;;;;;;;;;;;;;-144.99;81.61;52197.41;4970907;28;20023;-69
2022/07/12 07:14:58;;;;;;;;;;;;;;;-144.99;82.10;52195.34;4984751;28;19945;-73
2022/07/12 07:17:24;;;;;;;;;;;;;;;-144.99;81.81;52211.66;4957931;28;19937;-71
2022/07/12 07:19:51;;;;;;;;;;;;;;;-144.99;82.00;52207.59;4952660;28;19931;-69
2022/07/12 07:22:18;;;;;;;;;;;;;;;-144.99;82.08;52207.59;4991620;28;20344;-72
2022/07/12 07:24:46;;;;;;;;;;;;;;;-144.99;81.28;52199.44;4975799;28;20025;-74
2022/07/12 07:27:12;;;;;;;;;;;;;;;-144.99;81.29;52240.19;4960146;28;19956;-72
2022/07/12 07:32:23;;;;;;;;;;;;;;;-144.99;81.93;52244.28;4959968;28;20033;-71
2022/07/12 07:34:49;;;;;;;;;;;;;;;-144.99;82.33;52225.94;4977503;28;20013;-73
2022/07/12 07:37:16;;;;;;;;;;;;;;;-144.99;82.16;52232.03;4999073;28;19973;-73
2022/07/12 07:39:42;;;;;;;;;;;;;;;-144.99;80.93;52174.97;4995206;28;20313;-72
2022/07/12 07:42:10;;;;;;;;;;;;;;;-144.99;80.38;52207.59;5027799;28;19926;-73
2022/07/12 07:44:37;;;;;;;;;;;;;;;-144.99;79.12;52203.50;4997012;28;19930;-73
2022/07/12 07:47:03;;;;;;;;;;;;;;;-144.99;79.16;52219.81;4958829;28;19976;-74
2022/07/12 07:49:30;;;;;;;;;;;;;;;-144.99;79.00;52215.75;4980731;28;20040;-74
2022/07/12 07:51:56;;;;;;;;;;;;;;;-144.99;77.67;52211.66;5001834;28;20242;-72
2022/07/12 07:54:22;;;;;;;;;;;;;;;-144.99;77.54;52209.63;5012426;28;20087;-74
2022/07/12 07:56:49;;;;;;;;;;;;;;;-144.99;77.42;52199.44;5014886;28;19930;-75
2022/07/12 07:59:17;;;;;;;;;;;;;;;-144.99;76.09;52203.50;4982434;28;20017;-74
2022/07/12 08:01:44;;;;;;;;;;;;;;;-144.99;75.08;52166.81;4970090;28;19969;-75
2022/07/12 08:04:11;;;;;;;;;;;;;;;-144.99;74.82;52207.59;4965704;28;19934;-75
2022/07/12 08:06:37;;;;;;;;;;;;;;;-144.99;75.50;52248.34;5022936;28;20001;-74
2022/07/12 08:09:04;;;;;;;;;;;;;;;-144.99;76.41;52191.28;4974733;28;20405;-73
2022/07/12 08:11:30;;;;;;;;;;;;;;;-144.99;74.57;52211.66;4985736;28;20525;-74
2022/07/12 08:13:57;;;;;;;;;;;;;;;-144.99;73.97;52221.84;5005282;28;19977;-74
2022/07/12 08:16:25;;;;;;;;;;;;;;;-144.99;73.86;52205.53;5028341;28;19964;-75
2022/07/12 08:18:52;;;;;;;;;;;;;;;-144.99;73.66;52187.19;5003776;28;19965;-75
2022/07/12 08:21:18;;;;;;;;;;;;;;;-144.99;73.26;52183.13;4966886;28;20020;-75
2022/07/12 08:23:44;;;;;;;;;;;;;;;-144.99;71.92;52179.06;4964335;28;19998;-72
2022/07/12 08:26:11;;;;;;;;;;;;;;;-144.99;70.76;52187.19;4978125;28;20271;-74
2022/07/12 08:28:37;;;;;;;;;;;;;;;-144.99;69.32;52142.38;4971989;28;20251;-74
2022/07/12 08:31:04;;;;;;;;;;;;;;;-144.99;68.52;52177.00;4964888;28;20255;-74
2022/07/12 08:33:32;;;;;;;;;;;;;;;-144.99;67.24;52130.13;4961387;28;20211;-75
2022/07/12 08:35:58;;;;;;;;;;;;;;;-144.99;65.80;52187.19;4979303;28;19927;-75
2022/07/12 08:38:25;;;;;;;;;;;;;;;-144.99;66.14;52150.53;4985105;28;19929;-74
2022/07/12 08:40:52;;;;;;;;;;;;;;;-144.99;66.33;52183.13;4958816;28;20266;-75
2022/07/12 08:43:18;;;;;;;;;;;;;;;-144.99;65.81;52146.44;4982207;28;19957;-74
2022/07/12 08:45:45;;;;;;;;;;;;;;;-144.99;62.73;52154.59;4964920;28;19930;-74
2022/07/12 08:48:12;;;;;;;;;;;;;;;-144.99;63.63;52166.81;4963184;28;20020;-75
2022/07/12 08:50:40;;;;;;;;;;;;;;;-144.99;63.35;52174.97;4961122;28;20347;-74
2022/07/12 08:53:10;;;;;;;;;;;;;;;-144.99;62.79;52166.81;4981020;28;20537;-76
2022/07/12 08:55:37;;;;;;;;;;;;;;;-144.99;61.54;52121.97;4975557;28;20036;-74
2022/07/12 08:58:06;;;;;;;;;;;;;;;-144.99;60.33;52154.59;4956250;28;19936;-74
2022/07/12 09:00:33;;;;;;;;;;;;;;;-144.99;60.16;52146.44;4986094;28;20384;-75
2022/07/12 09:03:00;;;;;;;;;;;;;;;-144.99;59.88;52115.88;4971736;28;19927;-75
2022/07/12 09:05:27;;;;;;;;;;;;;;;-144.99;59.19;52117.91;4971297;28;19930;-73
2022/07/12 09:08:03;;;;;;;;;;;;;;;-144.99;57.47;52134.22;4960610;28;19953;-75
2022/07/12 09:10:30;;;;;;;;;;;;;;;-144.99;57.28;52154.59;4973355;28;20402;-73
2022/07/12 09:12:56;;;;;;;;;;;;;;;-144.99;56.67;52105.69;4975182;28;20235;-75
2022/07/12 09:15:23;;;;;;;;;;;;;;;-144.99;56.49;52077.16;4996057;28;20019;-75
2022/07/12 09:17:57;;;;;;;;;;;;;;;-144.99;55.93;52138.28;4959442;28;20016;-74
2022/07/12 09:20:24;;;;;;;;;;;;;;;-144.99;56.06;52109.75;4994130;28;19925;-75
2022/07/12 09:22:55;;;;;;;;;;;;;;;-144.99;56.13;52105.69;4964804;28;20019;-74
2022/07/12 09:25:23;;;;;;;;;;;;;;;-144.99;54.77;52136.25;5000857;28;19932;-74
2022/07/12 09:27:53;;;;;;;;;;;;;;;-144.99;54.75;52113.84;4956712;28;20018;-75
2022/07/12 09:30:20;;;;;;;;;;;;;;;-144.99;54.99;52138.28;4984968;28;20077;-75
2022/07/12 09:38:18;;;;;;;;;;;;;;;-144.99;52.82;52117.91;4968541;28;19965;-75
2022/07/12 09:40:47;;;;;;;;;;;;;;;-144.99;53.66;52121.97;4969847;28;19984;-75
2022/07/12 09:43:13;;;;;;;;;;;;;;;-144.99;54.39;52158.66;4980758;28;19952;-76
2022/07/12 09:45:40;;;;;;;;;;;;;;;-144.99;53.73;52093.44;4974207;28;19934;-73
2022/07/12 09:48:08;;;;;;;;;;;;;;;-144.99;53.10;52117.91;4957665;28;19930;-75
2022/07/12 09:50:36;;;;;;;;;;;;;;;-144.99;52.86;52099.56;4960177;28;19973;-75
2022/07/12 09:53:09;;;;;;;;;;;;;;;-144.99;52.82;52113.84;4972482;28;20276;-74
2022/07/12 09:55:37;;;;;;;;;;;;;;;-144.99;51.94;52089.38;4961392;28;19930;-76
2022/07/12 09:58:05;;;;;;;;;;;;;;;-144.99;51.75;52113.84;4966333;28;20305;-75
2022/07/12 10:00:32;;;;;;;;;;;;;;;-144.99;51.74;52105.69;4967353;28;19930;-75
2022/07/12 10:03:00;;;;;;;;;;;;;;;-144.99;51.46;52064.91;4993092;28;19934;-76
2022/07/12 10:05:27;;;;;;;;;;;;;;;-144.99;51.36;52097.53;4966466;28;20172;-76
2022/07/12 10:07:53;;;;;;;;;;;;;;;-144.99;50.80;52077.16;4988429;28;19930;-76
2022/07/12 10:10:20;;;;;;;;;;;;;;;-144.99;50.60;52093.44;4982776;28;19999;-76
2022/07/12 10:12:47;;;;;;;;;;;;;;;-144.99;50.63;52062.88;5026207;28;20027;-76
2022/07/12 10:15:17;;;;;;;;;;;;;;;-144.99;50.81;52113.84;5005951;28;20411;-74
2022/07/12 10:17:45;;;;;;;;;;;;;;;-144.99;50.58;52056.78;4967436;28;19930;-76
2022/07/12 10:20:16;;;;;;;;;;;;;;;-144.99;50.43;52060.84;4966368;28;20460;-75
2022/07/12 10:22:43;;;;;;;;;;;;;;;-144.99;48.87;52052.69;4972865;28;20373;-75
2022/07/12 10:25:24;;;;;;;;;;;;;;;-144.99;49.09;52040.47;4996117;28;19927;-75
2022/07/12 10:27:50;;;;;;;;;;;;;;;-144.99;48.02;52060.84;4963981;28;19981;-76
2022/07/12 10:30:19;;;;;;;;;;;;;;;-144.99;48.21;52032.31;4961686;28;19948;-74
2022/07/12 10:32:48;;;;;;;;;;;;;;;-144.99;48.29;52071.03;4998412;28;20015;-76
2022/07/12 10:35:16;;;;;;;;;;;;;;;-144.99;48.38;52121.97;4996049;28;20396;-76
2022/07/12 10:37:42;;;;;;;;;;;;;;;-144.99;47.41;52060.84;4958349;28;19931;-76
2022/07/12 10:40:12;;;;;;;;;;;;;;;-144.99;48.06;52036.38;4971274;28;20294;-76
2022/07/12 10:42:39;;;;;;;;;;;;;;;-144.99;48.37;52064.91;4970044;28;20000;-74
2022/07/12 10:45:12;;;;;;;;;;;;;;;-144.99;47.66;52048.63;4987577;28;19976;-76
2022/07/12 10:47:53;;;;;;;;;;;;;;;-144.99;46.71;51987.47;5016678;28;20025;-76
2022/07/12 10:50:41;;;;;;;;;;;;;;;-144.99;46.31;51979.31;4993949;28;20004;-75
2022/07/12 10:53:23;;;;;;;;;;;;;;;-144.99;46.62;52105.69;5000202;28;20093;-75
2022/07/12 10:56:07;;;;;;;;;;;;;;;-144.99;45.54;52030.28;4985103;28;19946;-75
2022/07/12 10:58:34;;;;;;;;;;;;;;;-144.99;45.62;52032.31;4964961;28;20388;-75
2022/07/12 11:01:02;;;;;;;;;;;;;;;-144.99;45.17;52024.16;4983943;28;19953;-74
2022/07/12 11:03:31;;;;;;;;;;;;;;;-144.99;45.04;51999.69;5022598;28;20074;-75
2022/07/12 11:06:02;;;;;;;;;;;;;;;-144.99;44.90;52024.16;4996103;28;19966;-75
2022/07/12 11:08:29;;;;;;;;;;;;;;;-144.99;44.91;51999.69;4959678;28;19927;-74
2022/07/12 11:10:55;;;;;;;;;;;;;;;-144.99;44.73;51999.69;4960359;28;20051;-74
2022/07/12 11:13:23;;;;;;;;;;;;;;;-144.99;44.38;51991.56;4967252;28;19932;-76
2022/07/12 11:15:56;;;;;;;;;;;;;;;-144.99;44.22;52003.78;4958766;28;20223;-76
2022/07/12 11:18:28;;;;;;;;;;;;;;;-144.99;44.01;52052.69;4986088;28;20009;-75
2022/07/12 11:20:55;;;;;;;;;;;;;;;-144.99;44.72;52024.16;4960506;28;20029;-76
2022/07/12 11:23:25;;;;;;;;;;;;;;;-144.99;45.37;52024.16;4961089;28;20252;-77
2022/07/12 11:25:51;;;;;;;;;;;;;;;-144.99;45.28;52040.47;4958832;28;19938;-75
2022/07/12 11:28:18;;;;;;;;;;;;;;;-144.99;45.03;52032.31;4960403;28;19926;-76
2022/07/12 11:30:49;;;;;;;;;;;;;;;-144.99;44.68;52032.31;4962933;28;19977;-76
2022/07/12 11:33:15;;;;;;;;;;;;;;;-144.99;44.66;52036.38;4974973;28;19930;-74
2022/07/12 11:35:44;;;;;;;;;;;;;;;-144.99;44.61;52016.00;4977118;28;19936;-74
2022/07/12 11:38:10;;;;;;;;;;;;;;;-144.99;44.53;52038.44;4958467;28;19927;-72
2022/07/12 11:40:38;;;;;;;;;;;;;;;-144.99;43.93;51987.47;4988740;28;20139;-75
2022/07/12 11:43:05;;;;;;;;;;;;;;;-144.99;43.35;52028.22;5016771;28;19924;-76
2022/07/12 11:45:34;;;;;;;;;;;;;;;-144.99;43.58;52020.09;4993548;28;19932;-74
2022/07/12 11:48:02;;;;;;;;;;;;;;;-144.99;43.90;52011.94;4980788;28;19932;-75
2022/07/12 11:50:29;;;;;;;;;;;;;;;-144.99;43.41;52028.22;4986275;28;20362;-75
2022/07/12 11:52:56;;;;;;;;;;;;;;;-144.99;43.60;52058.81;4994804;28;19928;-75
2022/07/12 11:55:22;;;;;;;;;;;;;;;-144.99;44.11;52022.13;4989049;28;20020;-75
2022/07/12 11:57:50;;;;;;;;;;;;;;;-144.99;44.11;52069.00;4966427;28;20293;-75
2022/07/12 12:00:18;;;;;;;;;;;;;;;-144.99;44.15;52105.69;4968551;28;19930;-74
2022/07/12 12:02:44;;;;;;;;;;;;;;;-144.99;45.01;52052.69;4995599;28;19929;-73
2022/07/12 12:05:11;;;;;;;;;;;;;;;-144.99;45.88;52113.84;4982621;28;20346;-75
2022/07/12 12:07:37;;;;;;;;;;;;;;;-144.99;46.61;52060.84;4967570;28;20339;-75
2022/07/12 12:10:05;;;;;;;;;;;;;;;-144.99;45.93;52056.78;4980433;28;19965;-75
2022/07/12 12:12:38;;;;;;;;;;;;;;;-144.99;45.78;52040.47;4974846;28;20401;-75
2022/07/12 12:15:07;;;;;;;;;;;;;;;-144.99;45.67;52052.69;4991098;28;19926;-76
2022/07/12 12:17:34;;;;;;;;;;;;;;;-144.99;45.94;52056.78;5017552;28;20360;-76
2022/07/12 12:20:08;;;;;;;;;;;;;;;-144.99;45.68;52003.78;4973067;28;19948;-75
2022/07/12 12:22:35;;;;;;;;;;;;;;;-144.99;45.06;52073.06;4966844;28;19926;-75
2022/07/12 12:25:02;;;;;;;;;;;;;;;-144.99;45.69;52064.91;4971915;28;20227;-75
2022/07/12 12:27:28;;;;;;;;;;;;;;;-144.99;45.33;52022.13;4960946;28;20362;-77
2022/07/12 12:29:58;;;;;;;;;;;;;;;-144.99;45.00;51991.56;4974023;28;19926;-76
2022/07/12 12:32:26;;;;;;;;;;;;;;;-144.99;44.19;52040.47;4957769;28;20025;-74
2022/07/12 12:35:09;;;;;;;;;;;;;;;-144.99;43.97;52030.28;4966524;28;19941;-75
2022/07/12 12:37:35;;;;;;;;;;;;;;;-144.99;44.61;52042.50;4997810;28;20652;-75
2022/07/12 12:40:02;;;;;;;;;;;;;;;-144.99;44.82;52048.63;4973290;28;20320;-74